Grays, United Kingdom
Current Conditions -  °F | °C
As of 2:50 PM on Tuesday 21 Oct 2014 (Local Time) from EGLC Reporting Station
Scattered Clouds Scattered Clouds  
Wind Chill: 57°   Ceiling: Unl
Heat Index: 57°   Visibility: 6mi
Dew Point: 39°   Wind: 28mph
Humidity: 51%   Direction: 280°W
Pressure: 29.74"   Gusts: 39mph
Location:  51.48°N, 0.33°E
Report Text: EGLC 211350Z 28024G34KT 9999 SCT045CB 14/04 Q1007
Loading
Personal Weather Stations






























Interactive Weather Map
Tropical Storm Tracking
New forecast layout! Learn more

10-Day Weather Forecast

Advertisements
Track Severe Weather on mobile